Apache Junction, Arizona
Current Conditions -  °F | °C
As of 11:47 PM on Thursday 23 Oct 2014 (Local Time) from KIWA Reporting Station
Clear Clear  
Wind Chill: 20°   Ceiling: Unl
Heat Index: 20°   Visibility: 20mi
Dew Point: 10°   Wind: 3mph
Humidity: 52%   Direction: 120°ESE
Pressure: 30.01"   Gusts: NA
Location:  33.42°N, 111.54°W
Report Text: KIWA 240647Z 12003KT 20SM SKC 20/10 A3001 RMK LAST
Loading
Personal Weather Stations






























Interactive Weather Map
Tropical Storm Tracking
New forecast layout! Learn more

10-Day Weather Forecast

Advertisements
Track Severe Weather on mobile